Main page
METAR-TAF:

METAR-TAF

Airports :

La Aurora International Airport

Guatemala City, Guatemala

latitude: 14-35N, longitude: 090-31W, elevation: 1489 m

Current weather observation

The report was made 29 minutes ago, at 13:00 UTC
Wind 14 kt from the North
Temperature 15°C
Humidity 63%
Pressure 1028 hPa
Visibility 10 km or more
Broken clouds at a height of 20000 ft

METAR: MGGT 201300Z 36014KT CAVOK 15/08 Q1028 A3036 BKN200

Time: 07:29 (13:29 UTC)

Forecast

The report was made 2 hours and 29 minutes ago, at 11:00 UTC
Forecast valid from 20 at 12 UTC to 21 at 12 UTC
Wind 16 kt from the North
Visibility 10 km or more
Few clouds at a height of 1600 ft
Becoming
from 20 at 16 UTC to 20 at 18 UTC
Few clouds at a height of 1800 ft
Becoming
from 21 at 01 UTC to 21 at 03 UTC
Scattered clouds at a height of 1600 ft
Becoming
from 21 at 08 UTC to 21 at 10 UTC
Few clouds at a height of 1600 ft

TAF: MGGT 201100Z 2012/2112 36016KT 9999 FEW016 TX25/2020Z TN17/2012Z BECMG 2016/2018 FEW018 BECMG 2101/2103 SCT016 BECMG 2108/2110 FEW016

Weather observations and forecasts of more than 4000 airports (METAR and TAF reports).

The available stations are represented by yellow and red dots on the map.

Hover mouse over dot to see the name of the station.

Then click to see weather observations and forecasts.

To change the map : click on the green buttons with a black cross to zoom in, on the green button with a dash to zoom out, or on the green arrows for adjacent maps.


METAR-TAF: